createdAt,value
2023-11-28T00:00:15.558Z,43.50
2023-11-28T00:02:42.168Z,43.41
2023-11-28T00:05:08.949Z,43.05
2023-11-28T00:07:35.572Z,43.52
2023-11-28T00:10:04.128Z,43.41
2023-11-28T00:12:30.851Z,43.37
2023-11-28T00:14:57.373Z,43.30
2023-11-28T00:17:24.021Z,43.29
2023-11-28T00:19:50.590Z,43.22
2023-11-28T00:22:17.085Z,43.25
2023-11-28T00:24:43.707Z,43.37
2023-11-28T00:27:11.616Z,43.33
2023-11-28T00:29:38.164Z,43.30
2023-11-28T00:32:05.538Z,43.16
2023-11-28T00:34:32.169Z,43.37
2023-11-28T00:36:58.753Z,43.23
2023-11-28T00:39:25.281Z,43.18
2023-11-28T00:41:51.831Z,43.24
2023-11-28T00:44:19.808Z,43.26
2023-11-28T00:46:46.430Z,42.96
2023-11-28T00:49:12.961Z,43.30
2023-11-28T00:51:42.408Z,43.19
2023-11-28T00:54:08.994Z,43.23
2023-11-28T00:56:35.453Z,42.99
2023-11-28T00:59:02.013Z,43.11
2023-11-28T01:01:30.120Z,43.19
2023-11-28T01:03:56.865Z,43.15
2023-11-28T01:06:23.547Z,43.06
2023-11-28T01:08:50.056Z,43.23
2023-11-28T01:11:16.604Z,43.12
2023-11-28T01:13:43.151Z,43.32
2023-11-28T01:16:11.472Z,43.07
2023-11-28T01:21:17.095Z,43.01
2023-11-28T01:23:43.592Z,42.84
2023-11-28T01:26:10.089Z,43.01
2023-11-28T01:28:36.677Z,43.08
2023-11-28T01:31:03.334Z,43.08
2023-11-28T01:33:29.910Z,42.92
2023-11-28T01:35:56.594Z,43.14
2023-11-28T01:38:24.461Z,42.89
2023-11-28T01:40:51.180Z,42.77
2023-11-28T01:43:23.975Z,42.94
2023-11-28T01:45:50.636Z,42.78
2023-11-28T01:48:17.363Z,42.98
2023-11-28T01:50:43.994Z,42.83
2023-11-28T01:53:10.967Z,42.88
2023-11-28T01:55:38.965Z,42.82
2023-11-28T01:58:05.786Z,42.83
2023-11-28T02:00:32.296Z,42.72
2023-11-28T02:03:02.399Z,42.78
2023-11-28T02:05:29.400Z,42.69
2023-11-28T02:07:57.099Z,42.73
2023-11-28T02:10:23.873Z,42.66
2023-11-28T02:12:51.741Z,42.58
2023-11-28T02:15:41.007Z,42.69
2023-11-28T02:18:07.547Z,42.71
2023-11-28T02:20:34.147Z,42.46
2023-11-28T02:23:01.077Z,42.69
2023-11-28T02:25:29.150Z,42.77
2023-11-28T02:27:57.241Z,42.62
2023-11-28T02:30:23.791Z,42.30
2023-11-28T02:32:50.364Z,42.47
2023-11-28T02:35:22.830Z,42.45
2023-11-28T02:37:50.198Z,42.66
2023-11-28T02:40:16.946Z,42.48
2023-11-28T02:42:43.511Z,42.32
2023-11-28T02:45:11.820Z,42.59
2023-11-28T02:47:38.435Z,42.41
2023-11-28T02:50:05.834Z,42.57
2023-11-28T02:52:32.495Z,42.57
2023-11-28T02:54:59.055Z,42.56
2023-11-28T02:57:25.596Z,42.43
2023-11-28T02:59:52.132Z,42.31
2023-11-28T03:02:20.000Z,42.23
2023-11-28T03:04:46.625Z,42.49
2023-11-28T03:07:13.212Z,42.34
2023-11-28T03:09:39.718Z,42.49
2023-11-28T03:12:06.610Z,42.11
2023-11-28T03:14:33.198Z,42.24
2023-11-28T03:16:59.748Z,42.22
2023-11-28T03:19:27.644Z,42.25
2023-11-28T03:21:54.179Z,42.47
2023-11-28T03:24:20.785Z,42.25
2023-11-28T03:26:47.328Z,42.24
2023-11-28T03:29:14.034Z,42.34
2023-11-28T03:31:40.742Z,42.43
2023-11-28T03:34:07.303Z,42.31
2023-11-28T03:36:35.088Z,42.28
2023-11-28T03:39:01.659Z,42.29
2023-11-28T03:41:28.261Z,42.11
2023-11-28T03:43:54.888Z,42.38
2023-11-28T03:46:21.455Z,42.23
2023-11-28T03:48:48.030Z,42.41
2023-11-28T03:51:14.631Z,42.25
2023-11-28T03:53:42.557Z,42.19
2023-11-28T03:56:10.696Z,42.13
2023-11-28T03:58:37.243Z,42.15
2023-11-28T04:01:04.433Z,42.20
2023-11-28T04:03:30.905Z,42.13
2023-11-28T04:05:57.451Z,42.02
2023-11-28T04:08:24.163Z,42.08
2023-11-28T04:10:52.240Z,41.91
2023-11-28T04:13:18.836Z,41.94
2023-11-28T04:15:45.480Z,42.13
2023-11-28T04:18:12.229Z,41.89
2023-11-28T04:20:39.373Z,41.81
2023-11-28T04:23:07.456Z,41.92
2023-11-28T04:25:34.271Z,41.95
2023-11-28T04:28:02.218Z,41.98
2023-11-28T04:30:28.876Z,41.85
2023-11-28T04:32:55.564Z,41.86
2023-11-28T04:35:22.117Z,41.77
2023-11-28T04:37:48.719Z,41.76
2023-11-28T04:40:15.282Z,41.75
2023-11-28T04:42:41.815Z,41.78
2023-11-28T04:45:10.197Z,41.78
2023-11-28T04:47:37.164Z,41.82
2023-11-28T04:50:04.189Z,41.69
2023-11-28T04:52:31.006Z,41.78
2023-11-28T04:54:57.508Z,41.75
2023-11-28T04:59:54.880Z,41.91
2023-11-28T05:02:22.750Z,41.73
2023-11-28T05:04:49.399Z,41.62
2023-11-28T05:07:15.949Z,41.82
2023-11-28T05:09:42.663Z,41.81
2023-11-28T05:12:09.395Z,41.87
2023-11-28T05:14:35.885Z,41.66
2023-11-28T05:17:02.437Z,41.69
2023-11-28T05:19:30.356Z,41.63
2023-11-28T05:21:56.876Z,41.70
2023-11-28T05:24:23.387Z,41.56
2023-11-28T05:26:50.028Z,41.59
2023-11-28T05:29:16.528Z,41.54
2023-11-28T05:31:43.134Z,41.64
2023-11-28T05:34:09.604Z,41.71
2023-11-28T05:36:37.460Z,41.61
2023-11-28T05:39:04.054Z,41.65
2023-11-28T05:41:30.528Z,41.66
2023-11-28T05:43:57.061Z,41.67
2023-11-28T05:46:23.562Z,41.57
2023-11-28T05:48:50.028Z,41.51
2023-11-28T05:51:16.625Z,41.71
2023-11-28T05:53:44.523Z,41.72
2023-11-28T05:56:11.290Z,43.34
2023-11-28T05:58:37.887Z,45.23
2023-11-28T06:01:04.866Z,45.56
2023-11-28T06:03:31.506Z,46.00
2023-11-28T06:05:58.097Z,45.55
2023-11-28T06:08:24.582Z,45.08
2023-11-28T06:10:58.645Z,44.65
2023-11-28T06:13:25.545Z,44.53
2023-11-28T06:16:05.165Z,44.33
2023-11-28T06:18:31.730Z,44.28
2023-11-28T06:20:58.203Z,44.00
2023-11-28T06:23:24.897Z,43.88
2023-11-28T06:25:52.748Z,43.80
2023-11-28T06:28:19.229Z,43.71
2023-11-28T06:30:45.794Z,43.43
2023-11-28T06:33:12.306Z,43.50
2023-11-28T06:35:53.960Z,43.28
2023-11-28T06:38:20.543Z,43.29
2023-11-28T06:40:47.103Z,43.45
2023-11-28T06:43:14.998Z,43.03
2023-11-28T06:45:41.622Z,43.05
2023-11-28T06:48:08.207Z,43.01
2023-11-28T06:50:34.944Z,42.87
2023-11-28T06:53:01.492Z,42.81
2023-11-28T06:55:28.196Z,42.81
2023-11-28T06:57:54.647Z,42.60
2023-11-28T07:00:22.533Z,42.71
2023-11-28T07:02:52.338Z,42.83
2023-11-28T07:05:19.016Z,42.79
2023-11-28T07:07:45.745Z,42.49
2023-11-28T07:10:12.495Z,42.33
2023-11-28T07:12:39.629Z,42.47
2023-11-28T07:15:06.710Z,42.48
2023-11-28T07:17:34.579Z,42.28
2023-11-28T07:20:01.294Z,42.44
2023-11-28T07:22:28.103Z,42.38
2023-11-28T07:24:56.457Z,42.34
2023-11-28T07:27:24.861Z,42.36
2023-11-28T07:29:51.441Z,42.25
2023-11-28T07:32:18.032Z,42.24
2023-11-28T07:34:46.043Z,42.17
2023-11-28T07:37:12.610Z,42.20
2023-11-28T07:39:39.349Z,42.07
2023-11-28T07:42:06.444Z,42.11
2023-11-28T07:44:33.210Z,42.09
2023-11-28T07:46:59.972Z,41.94
2023-11-28T07:49:26.507Z,42.10
2023-11-28T07:51:54.403Z,41.72
2023-11-28T07:54:20.955Z,41.91
2023-11-28T07:56:47.434Z,41.78
2023-11-28T07:59:14.093Z,41.82
2023-11-28T08:01:40.682Z,41.72
2023-11-28T08:04:07.389Z,41.74
2023-11-28T08:06:33.933Z,41.72
2023-11-28T08:09:01.902Z,41.61
2023-11-28T08:11:28.503Z,41.69
2023-11-28T08:13:55.145Z,41.65
2023-11-28T08:16:21.691Z,41.69
2023-11-28T08:18:48.219Z,41.65
2023-11-28T08:21:14.802Z,42.86
2023-11-28T08:23:42.404Z,42.42
2023-11-28T08:26:11.137Z,42.61
2023-11-28T08:28:37.904Z,42.83
2023-11-28T08:31:05.084Z,42.83
2023-11-28T08:33:31.681Z,43.38
2023-11-28T08:35:58.236Z,43.22
2023-11-28T08:38:26.458Z,42.96
2023-11-28T08:40:53.294Z,43.20
2023-11-28T08:43:21.340Z,43.03
2023-11-28T08:45:47.956Z,43.14
2023-11-28T08:48:14.576Z,43.00
2023-11-28T08:50:41.148Z,42.88
2023-11-28T08:53:07.775Z,42.95
2023-11-28T08:55:34.393Z,42.70
2023-11-28T08:58:00.895Z,42.59
2023-11-28T09:00:28.715Z,42.64
2023-11-28T09:02:55.382Z,42.53
2023-11-28T09:05:22.176Z,42.56
2023-11-28T09:07:48.830Z,42.58
2023-11-28T09:10:15.432Z,42.57
2023-11-28T09:12:42.022Z,42.41
2023-11-28T09:15:09.600Z,42.37
2023-11-28T09:17:37.619Z,42.65
2023-11-28T09:20:04.642Z,42.41
2023-11-28T09:22:31.272Z,42.49
2023-11-28T09:24:58.002Z,42.34
2023-11-28T09:27:24.609Z,42.74
2023-11-28T09:29:53.498Z,42.58
2023-11-28T09:32:21.252Z,42.77
2023-11-28T09:34:49.388Z,42.22
2023-11-28T09:37:15.959Z,42.45
2023-11-28T09:39:42.958Z,42.08
2023-11-28T09:42:11.205Z,41.99
2023-11-28T09:44:38.076Z,42.87
2023-11-28T09:47:08.181Z,42.56
2023-11-28T09:49:40.426Z,42.46
2023-11-28T09:52:08.813Z,42.33
2023-11-28T09:54:37.138Z,42.30
2023-11-28T09:57:05.200Z,42.25
2023-11-28T09:59:32.508Z,42.32
2023-11-28T10:02:01.378Z,42.19
2023-11-28T10:04:28.050Z,42.04
2023-11-28T10:06:54.702Z,41.88
2023-11-28T10:09:22.924Z,41.88
2023-11-28T10:11:54.654Z,41.86
2023-11-28T10:14:21.201Z,41.72
2023-11-28T10:16:48.681Z,41.71
2023-11-28T10:19:15.673Z,41.74
2023-11-28T10:21:42.654Z,41.85
2023-11-28T10:24:09.733Z,41.64
2023-11-28T10:26:38.079Z,41.77
2023-11-28T10:29:04.835Z,41.68
2023-11-28T10:31:31.386Z,41.60
2023-11-28T10:33:58.300Z,41.50
2023-11-28T10:36:26.994Z,41.46
2023-11-28T10:38:54.394Z,41.48
2023-11-28T10:41:31.707Z,41.38
2023-11-28T10:43:59.541Z,41.49
2023-11-28T10:46:26.768Z,41.37
2023-11-28T10:48:53.670Z,41.29
2023-11-28T10:51:22.470Z,41.37
2023-11-28T10:53:49.759Z,41.21
2023-11-28T10:56:21.303Z,41.18
2023-11-28T10:58:48.052Z,41.20
2023-11-28T11:01:18.092Z,41.05
2023-11-28T11:03:46.360Z,41.03
2023-11-28T11:06:13.302Z,40.98
2023-11-28T11:11:10.983Z,41.05
2023-11-28T11:13:46.739Z,40.88
2023-11-28T11:16:23.473Z,40.94
2023-11-28T11:18:52.237Z,40.46
2023-11-28T11:21:23.322Z,40.65
2023-11-28T11:23:54.770Z,40.70
2023-11-28T11:26:35.649Z,40.75
2023-11-28T11:29:03.006Z,41.03
2023-11-28T11:31:30.876Z,41.10
2023-11-28T11:33:57.392Z,41.08
2023-11-28T11:36:25.686Z,41.08
2023-11-28T11:38:52.221Z,41.10
2023-11-28T11:41:18.977Z,41.05
2023-11-28T11:43:46.285Z,41.15
2023-11-28T11:46:14.030Z,41.25
2023-11-28T11:48:43.194Z,41.19
2023-11-28T11:51:10.704Z,41.32
2023-11-28T11:53:38.685Z,41.37
2023-11-28T11:56:06.768Z,41.06
2023-11-28T11:58:33.440Z,41.11
2023-11-28T12:01:00.551Z,41.16
2023-11-28T12:03:27.044Z,41.04
2023-11-28T12:05:56.125Z,40.79
2023-11-28T12:08:23.867Z,40.67
2023-11-28T12:10:53.881Z,40.62
2023-11-28T12:13:20.969Z,40.75
2023-11-28T12:15:47.483Z,40.54
2023-11-28T12:18:14.572Z,40.42
2023-11-28T12:20:42.288Z,40.46
2023-11-28T12:23:10.860Z,40.37
2023-11-28T12:25:37.685Z,39.97
2023-11-28T12:28:04.438Z,40.05
2023-11-28T12:30:31.366Z,39.88
2023-11-28T12:32:59.974Z,40.01
2023-11-28T12:35:28.039Z,40.25
2023-11-28T12:37:56.258Z,40.51
2023-11-28T12:40:24.420Z,40.47
2023-11-28T12:42:51.115Z,40.26
2023-11-28T12:45:24.158Z,40.39
2023-11-28T12:47:50.744Z,40.23
2023-11-28T12:50:17.988Z,40.27
2023-11-28T12:52:44.686Z,40.29
2023-11-28T12:55:11.265Z,40.16
2023-11-28T12:57:39.237Z,40.46
2023-11-28T13:00:07.277Z,40.29
2023-11-28T13:02:34.086Z,40.24
2023-11-28T13:05:00.940Z,40.27
2023-11-28T13:07:33.459Z,40.23
2023-11-28T13:10:06.295Z,40.06
2023-11-28T13:12:32.847Z,40.33
2023-11-28T13:15:02.005Z,40.32
2023-11-28T13:17:28.801Z,40.47
2023-11-28T13:19:55.328Z,40.73
2023-11-28T13:22:22.091Z,40.87
2023-11-28T13:24:49.194Z,40.69
2023-11-28T13:27:15.726Z,40.82
2023-11-28T13:29:42.255Z,40.80
2023-11-28T13:32:10.299Z,41.22
2023-11-28T13:34:36.898Z,41.01
2023-11-28T13:37:03.614Z,40.91
2023-11-28T13:39:30.051Z,40.78
2023-11-28T13:41:56.544Z,40.92
2023-11-28T13:44:23.193Z,40.83
2023-11-28T13:46:49.874Z,40.88
2023-11-28T13:49:17.880Z,40.88
2023-11-28T13:51:44.429Z,40.74
2023-11-28T13:54:10.862Z,40.84
2023-11-28T13:56:37.344Z,40.64
2023-11-28T13:59:03.974Z,40.72
2023-11-28T14:01:30.537Z,40.58
2023-11-28T14:03:57.194Z,40.78
2023-11-28T14:09:16.116Z,40.55
2023-11-28T14:11:42.658Z,40.60
2023-11-28T14:14:09.227Z,40.56
2023-11-28T14:16:35.963Z,40.59
2023-11-28T14:19:02.690Z,40.42
2023-11-28T14:21:29.401Z,40.49
2023-11-28T14:23:55.894Z,40.44
2023-11-28T14:26:23.877Z,40.86
2023-11-28T14:28:50.415Z,40.63
2023-11-28T14:31:17.053Z,40.61
2023-11-28T14:33:43.519Z,40.60
2023-11-28T14:36:10.806Z,40.68
2023-11-28T14:38:37.569Z,40.77
2023-11-28T14:41:04.326Z,40.71
2023-11-28T14:43:32.126Z,40.63
2023-11-28T14:45:58.662Z,41.09
2023-11-28T14:48:25.176Z,40.82
2023-11-28T14:50:51.819Z,40.87
2023-11-28T14:53:18.500Z,40.75
2023-11-28T14:55:45.013Z,40.79
2023-11-28T14:58:11.616Z,41.75
2023-11-28T15:00:39.426Z,42.96
2023-11-28T15:03:06.243Z,43.51
2023-11-28T15:05:33.241Z,43.59
2023-11-28T15:08:02.689Z,43.55
2023-11-28T15:10:36.659Z,43.45
2023-11-28T15:13:03.019Z,43.68
2023-11-28T15:15:29.524Z,43.32
2023-11-28T15:17:57.548Z,43.12
2023-11-28T15:20:24.122Z,42.85
2023-11-28T15:22:50.693Z,42.73
2023-11-28T15:25:18.654Z,42.76
2023-11-28T15:27:45.117Z,42.78
2023-11-28T15:30:12.799Z,42.52
2023-11-28T15:32:39.598Z,42.70
2023-11-28T15:35:12.758Z,42.49
2023-11-28T15:37:40.013Z,42.25
2023-11-28T15:40:07.530Z,42.36
2023-11-28T15:42:34.041Z,42.19
2023-11-28T15:45:00.607Z,42.23
2023-11-28T15:47:27.190Z,41.96
2023-11-28T15:49:53.838Z,42.33
2023-11-28T15:52:21.738Z,42.12
2023-11-28T15:54:48.263Z,42.04
2023-11-28T15:57:14.913Z,41.89
2023-11-28T15:59:41.653Z,41.93
2023-11-28T16:02:08.162Z,41.92
2023-11-28T16:04:34.721Z,41.86
2023-11-28T16:07:01.261Z,41.89
2023-11-28T16:09:29.076Z,41.94
2023-11-28T16:11:55.774Z,42.00
2023-11-28T16:14:22.420Z,41.80
2023-11-28T16:16:48.973Z,41.76
2023-11-28T16:19:15.560Z,41.79
2023-11-28T16:21:42.382Z,41.69
2023-11-28T16:24:08.941Z,41.74
2023-11-28T16:26:36.920Z,41.73
2023-11-28T16:29:03.628Z,41.49
2023-11-28T16:31:30.205Z,41.91
2023-11-28T16:33:56.810Z,42.05
2023-11-28T16:36:23.499Z,41.80
2023-11-28T16:38:50.090Z,41.66
2023-11-28T16:41:17.838Z,41.62
2023-11-28T16:43:46.146Z,41.72
2023-11-28T16:46:12.978Z,41.73
2023-11-28T16:48:39.525Z,41.81
2023-11-28T16:51:06.203Z,41.71
2023-11-28T16:53:33.244Z,41.68
2023-11-28T16:56:00.340Z,41.97
2023-11-28T16:58:26.958Z,42.01
2023-11-28T17:03:24.133Z,41.82
2023-11-28T17:05:50.698Z,41.64
2023-11-28T17:08:17.342Z,41.93
2023-11-28T17:10:43.887Z,41.84
2023-11-28T17:13:10.616Z,41.92
2023-11-28T17:15:37.262Z,42.21
2023-11-28T17:18:04.048Z,41.97
2023-11-28T17:20:32.109Z,41.91
2023-11-28T17:22:58.712Z,42.00
2023-11-28T17:25:25.222Z,42.08
2023-11-28T17:27:51.818Z,41.99
2023-11-28T17:30:18.885Z,42.21
2023-11-28T17:32:45.470Z,42.02
2023-11-28T17:35:14.543Z,42.19
2023-11-28T17:37:43.359Z,42.29
2023-11-28T17:40:10.144Z,42.11
2023-11-28T17:42:36.650Z,41.93
2023-11-28T17:45:03.765Z,42.17
2023-11-28T17:47:30.403Z,42.25
2023-11-28T17:49:57.363Z,42.18
2023-11-28T17:52:24.031Z,42.16
2023-11-28T17:54:51.868Z,42.13
2023-11-28T17:59:46.180Z,42.39
2023-11-28T18:02:12.720Z,42.34
2023-11-28T18:04:39.710Z,42.05
2023-11-28T18:07:06.470Z,42.25
2023-11-28T18:09:33.413Z,42.20
2023-11-28T18:12:01.897Z,42.36
2023-11-28T18:14:28.547Z,42.30
2023-11-28T18:16:55.191Z,42.24
2023-11-28T18:19:21.881Z,42.41
2023-11-28T18:21:48.597Z,42.46
2023-11-28T18:24:15.408Z,42.42
2023-11-28T18:26:42.788Z,42.36
2023-11-28T18:29:10.673Z,42.37
2023-11-28T18:31:37.245Z,42.43
2023-11-28T18:34:03.902Z,42.33
2023-11-28T18:36:30.429Z,42.43
2023-11-28T18:39:03.843Z,42.51
2023-11-28T18:41:31.423Z,42.46
2023-11-28T18:43:57.924Z,42.26
2023-11-28T18:46:25.833Z,42.25
2023-11-28T18:48:52.368Z,42.51
2023-11-28T18:51:19.700Z,42.31
2023-11-28T18:53:46.901Z,42.31
2023-11-28T18:56:18.340Z,42.32
2023-11-28T18:58:45.536Z,42.31
2023-11-28T19:01:15.157Z,42.21
2023-11-28T19:03:43.876Z,42.41
2023-11-28T19:06:10.745Z,42.23
2023-11-28T19:08:37.500Z,42.21
2023-11-28T19:11:05.076Z,42.18
2023-11-28T19:13:31.937Z,42.21
2023-11-28T19:15:58.581Z,42.04
2023-11-28T19:18:25.102Z,42.16
2023-11-28T19:20:52.968Z,42.07
2023-11-28T19:23:19.534Z,42.13
2023-11-28T19:25:47.248Z,42.25
2023-11-28T19:28:13.949Z,42.01
2023-11-28T19:30:40.580Z,42.04
2023-11-28T19:33:07.337Z,42.03
2023-11-28T19:35:33.996Z,41.89
2023-11-28T19:38:02.017Z,41.99
2023-11-28T19:40:28.846Z,41.92
2023-11-28T19:42:55.661Z,41.86
2023-11-28T19:45:22.450Z,41.89
2023-11-28T19:47:48.969Z,41.89
2023-11-28T19:50:15.688Z,41.75
2023-11-28T19:52:42.368Z,41.72
2023-11-28T19:55:11.478Z,41.94
2023-11-28T19:57:38.040Z,41.82
2023-11-28T20:00:05.308Z,41.98
2023-11-28T20:02:31.931Z,41.75
2023-11-28T20:04:58.507Z,41.95
2023-11-28T20:07:25.049Z,41.78
2023-11-28T20:09:51.528Z,41.79
2023-11-28T20:12:19.317Z,41.69
2023-11-28T20:14:45.925Z,41.82
2023-11-28T20:17:12.520Z,41.92
2023-11-28T20:19:38.980Z,41.88
2023-11-28T20:22:05.442Z,41.82
2023-11-28T20:24:32.737Z,41.86
2023-11-28T20:26:59.675Z,41.52
2023-11-28T20:29:27.485Z,41.72
2023-11-28T20:31:53.997Z,41.68
2023-11-28T20:34:20.464Z,41.64
2023-11-28T20:36:46.910Z,41.87
2023-11-28T20:39:13.420Z,41.65
2023-11-28T20:41:40.349Z,41.66
2023-11-28T20:44:07.994Z,41.63
2023-11-28T20:46:35.922Z,41.79
2023-11-28T20:49:02.454Z,41.71
2023-11-28T20:51:28.976Z,41.34
2023-11-28T20:53:55.457Z,41.57
2023-11-28T20:56:21.966Z,41.51
2023-11-28T20:58:48.583Z,41.53
2023-11-28T21:01:18.892Z,41.43
2023-11-28T21:03:46.735Z,41.38
2023-11-28T21:06:13.574Z,41.65
2023-11-28T21:08:40.337Z,41.55
2023-11-28T21:11:07.082Z,41.46
2023-11-28T21:13:33.948Z,41.41
2023-11-28T21:16:00.526Z,41.50
2023-11-28T21:18:27.305Z,41.44
2023-11-28T21:20:55.562Z,41.44
2023-11-28T21:23:22.086Z,41.29
2023-11-28T21:25:48.612Z,41.21
2023-11-28T21:28:15.094Z,41.28
2023-11-28T21:30:41.615Z,41.50
2023-11-28T21:33:08.160Z,41.31
2023-11-28T21:35:34.684Z,41.22
2023-11-28T21:38:02.503Z,41.34
2023-11-28T21:40:29.016Z,41.31
2023-11-28T21:42:55.571Z,41.40
2023-11-28T21:45:22.045Z,41.34
2023-11-28T21:47:48.685Z,41.29
2023-11-28T21:50:16.376Z,41.49
2023-11-28T21:52:43.202Z,41.36
2023-11-28T21:55:10.986Z,41.22
2023-11-28T21:57:37.507Z,41.23
2023-11-28T22:00:04.688Z,41.21
2023-11-28T22:02:31.302Z,41.25
2023-11-28T22:04:57.794Z,41.28
2023-11-28T22:07:24.241Z,41.16
2023-11-28T22:09:50.723Z,40.97
2023-11-28T22:12:18.522Z,41.24
2023-11-28T22:14:45.000Z,41.20
2023-11-28T22:17:11.575Z,41.30
2023-11-28T22:19:38.177Z,41.33
2023-11-28T22:22:04.723Z,41.14
2023-11-28T22:24:31.213Z,41.24
2023-11-28T22:26:57.709Z,41.12
2023-11-28T22:29:26.510Z,41.18
2023-11-28T22:31:53.012Z,41.24
2023-11-28T22:34:19.553Z,41.39
2023-11-28T22:36:46.059Z,41.15
2023-11-28T22:39:12.527Z,41.15
2023-11-28T22:41:38.951Z,41.05
2023-11-28T22:44:05.510Z,41.16
2023-11-28T22:46:33.327Z,41.23
2023-11-28T22:48:59.968Z,41.16
2023-11-28T22:51:26.471Z,41.08
2023-11-28T22:53:53.047Z,41.28
2023-11-28T22:56:19.563Z,41.12
2023-11-28T23:01:19.187Z,41.17
2023-11-28T23:03:46.978Z,41.10
2023-11-28T23:06:13.560Z,41.20
2023-11-28T23:08:39.974Z,41.16
2023-11-28T23:11:06.565Z,40.95
2023-11-28T23:13:33.078Z,41.17
2023-11-28T23:15:59.700Z,41.30
2023-11-28T23:18:26.230Z,41.00
2023-11-28T23:20:54.018Z,41.13
2023-11-28T23:23:20.564Z,41.08
2023-11-28T23:25:47.153Z,41.08
2023-11-28T23:28:13.614Z,41.12
2023-11-28T23:30:40.204Z,41.10
2023-11-28T23:33:06.736Z,41.08
2023-11-28T23:35:33.411Z,41.08
2023-11-28T23:38:01.345Z,41.25
2023-11-28T23:40:30.087Z,41.36
2023-11-28T23:42:58.251Z,41.04
2023-11-28T23:45:24.757Z,41.02
2023-11-28T23:47:51.319Z,41.03
2023-11-28T23:50:18.372Z,41.17
2023-11-28T23:52:44.854Z,41.05
2023-11-28T23:55:12.647Z,41.11
2023-11-28T23:57:39.304Z,40.98
